​ ​

Форум клана ЧПУшников

Информация о пользователе

Привет, Гость! Войдите или зарегистрируйтесь.


Вы здесь » Форум клана ЧПУшников » Лазерные станки


Лазерные станки

Тем 81 страница 160 из 685

Тема Ответов Просмотров Последнее сообщение
4 225 04-06-2021 15:09:22  AndreyV
1 137 25-05-2021 19:00:36  Valera5609
0 143 10-05-2021 08:37:38  Sanana
24 10941 26-04-2021 12:47:19  brainmo
107 8644 21-04-2021 11:09:49  Siga
39 3988 20-04-2021 21:08:30  Valera5609
239 28220 19-04-2021 10:20:09  Kinetic
3 180 15-04-2021 12:48:55  су-24
6 246 02-04-2021 15:14:00  Valera5609
90 LaserCAD  Valentin25
10 796 01-04-2021 16:02:13  Сергей Одесса
91 Нужна помощь специалистов!  Мастер на все руки
31 1802 29-03-2021 12:18:15  Владимирская?
1 113 24-03-2021 21:35:31  SNS
1 140 24-03-2021 16:56:07  Radiovolna
0 126 23-03-2021 13:17:34  headbI4
0 169 21-03-2021 13:18:28  headbI4
143 18831 16-03-2021 16:57:36  Valera5609
12 498 15-03-2021 23:02:45  ЮгРФ
0 216 15-03-2021 19:40:08  lazukin vlad
1 95 14-03-2021 20:10:46  3aBp
3 123 10-03-2021 20:42:04  Valera5609
3 267 07-03-2021 22:42:59  Valera5609
349 23629 06-03-2021 02:16:05  CNCshnick
15 247 28-02-2021 05:46:23  Dark Knight
2 114 25-02-2021 23:08:23  комса45
0 117 25-02-2021 13:02:09  meglauk
0 114 22-02-2021 04:58:55  Фом
5 461 18-02-2021 13:15:29  ydav75
15 552 18-02-2021 12:19:55  ydav75
109 RDworks и Autocad  Nimrod94
4 280 12-02-2021 13:43:46  Valera5609
3 178 10-02-2021 19:08:26  agronom_26
7 294 02-02-2021 09:40:03  Dark Night
3 144 28-01-2021 12:04:03  Valera5609
113 Вопрос по рдворкс  Тимур Гильманов
4 265 26-01-2021 09:54:53  AlexiAlexiAlexi
19 1706 26-01-2021 01:37:16  AlexiAlexiAlexi
22 895 25-01-2021 13:20:58  DeniskaUSSR
116 Нужен совет  AlekssnderKuznetsov
15 285 16-01-2021 17:34:08  Valera5609
2 188 18-12-2020 00:32:20  Kusss
3 234 13-12-2020 16:01:45  Жмурик
0 125 13-12-2020 13:16:01  Michelinbrat
5 568 10-12-2020 02:03:50  bart68rus
13 1588 08-12-2020 21:04:21  Valera5609
51 2979 08-12-2020 12:49:37  Alex_UnDeR
12 797 07-12-2020 11:04:01  Valera5609
29 452 03-12-2020 21:35:55  anvaleriya
3 130 02-12-2020 16:00:09  Outsider
72 1896 02-12-2020 13:00:09  Kuz
127 Trocen vs RUIDA  ptolik
12 2043 27-11-2020 16:28:06  Cergio
4 342 27-11-2020 15:35:42  CNCshnick
3 207 27-11-2020 03:12:56  CNCshnick
130 RDWorksV8 в CorelDRAW X8  bartilord  [ 1 2 ]
174 20288 27-11-2020 00:37:40  djbratislav
11 153 22-11-2020 15:06:45  Valera5609
1 151 19-11-2020 12:59:21  ilya37rus
1 166 19-11-2020 09:30:35  RaysLightsaber
105 7690 17-11-2020 22:18:53  Valera5609
1 168 16-11-2020 05:17:54  Олександр Га Столяр
1 189 15-11-2020 15:20:17  Дмитрий Шестак
3 649 15-11-2020 15:17:35  Дмитрий Шестак
9 180 09-11-2020 18:45:49  pro100informatika
6 289 08-11-2020 03:54:35  CNCshnick
80 8467 04-11-2020 13:25:20  ilya37rus
12 193 27-10-2020 07:10:04  Jek44
37 891 24-10-2020 13:09:32  ilya37rus
4 290 24-10-2020 06:22:03  Фом
2 153 23-10-2020 18:05:16  ilya37rus
145 К40 погорелец  Шкодавод
3 206 19-10-2020 12:30:31  Шкодавод
2 208 10-10-2020 19:22:18  Valera5609
1 153 30-09-2020 22:19:22  SNS
148 Закрыта Не включается станок  step_up
8 374 19-09-2020 08:15:07  step_up
19 763 13-09-2020 16:34:25  Toha3220
9 222 12-09-2020 01:38:41  Keeper
7 236 01-09-2020 14:38:02  Kuz
2 246 29-08-2020 22:14:01  Bumbook
1 123 21-08-2020 10:41:35  ilya37rus
154 ruida  ilya37rus
30 631 17-08-2020 10:16:39  ilya37rus
7 235 08-08-2020 14:36:08  Aivan
7 196 06-08-2020 12:25:23  Jek44
0 86 30-07-2020 10:14:32  Timmi
158 Baisheng bls3015  Wireon
0 78 28-07-2020 08:59:23  Wireon
19 536 26-07-2020 14:55:23  ilusion
99 8243 26-07-2020 14:41:57  ilusion

Вы здесь » Форум клана ЧПУшников » Лазерные станки